Harvest Plains — V7UV8 — position and weather

sailwx.info

Track history (hours):
 
Tides and Currents Weather Stations Pressure Air Temp Water Temp Dewpoint Dewpoint Depression Visibility Wind Speed Wind Dir Waves Ship Positions

Harvest Plains

Last reported at 2018-Jun-12 02:16 UTC. Time now 2018-Jun-19 12:21 UTC.
Position N 37°05' E 004°54'.

Length 189 m; draft 10.5 m.

Type: Cargo ship. MMSI: 538004043.

Date/timePositionNaut miles runAvg speedWind from/ knotsBaromVisibWave heightAir tempDewpointWater temp
2018-Jun-12 02:16N 37°05' E 004°54'311.1
2018-Jun-12 02:00N 37°07' E 004°52'1911.3
2018-Jun-12 00:21N 37°10' E 004°29'412.0
2018-Jun-12 00:00N 37°10' E 004°24'612.2
2018-Jun-11 23:30N 37°10' E 004°16'612.7
2018-Jun-11 23:00N 37°10' E 004°08'7712.7
2018-Jun-11 16:58N 37°06' E 002°32'713.8
2018-Jun-11 16:29N 37°05' E 002°24'613.2
2018-Jun-11 16:00N 37°03' E 002°16'713.1
2018-Jun-11 15:30N 37°01' E 002°08'713.4
2018-Jun-11 15:00N 36°60' E 001°60'12013.3
2018-Jun-11 06:00N 36°34' W 000°26'612.3
2018-Jun-11 05:30N 36°33' W 000°34'812.3
2018-Jun-11 04:53N 36°31' W 000°43'21613.5
2018-Jun-10 12:54N 36°05' W 005°09'513.8
2018-Jun-10 12:31N 36°05' W 005°15'611.5
2018-Jun-10 12:00N 36°06' W 005°22'1 2.9
2018-Jun-10 11:30N 36°08' W 005°22'0 0.1
2018-Jun-10 11:00N 36°07' W 005°22'0 0.0
2018-Jun-10 10:30N 36°08' W 005°22'0 0.1
2018-Jun-10 09:48N 36°07' W 005°22'0 0.1
2018-Jun-10 09:30N 36°07' W 005°22'0 0.0
2018-Jun-10 08:57N 36°08' W 005°22'0 0.1
2018-Jun-10 08:30N 36°08' W 005°22'0 0.1
2018-Jun-10 08:00N 36°08' W 005°22'0 0.3
2018-Jun-10 07:24N 36°07' W 005°22'0 0.0
2018-Jun-10 07:00N 36°07' W 005°22'0 0.0
2018-Jun-10 06:30N 36°07' W 005°22'0 0.0
2018-Jun-10 05:54N 36°07' W 005°22'0 0.1
2018-Jun-10 05:24N 36°07' W 005°22'0 0.1
2018-Jun-10 04:48N 36°07' W 005°22'0 0.1
2018-Jun-10 04:24N 36°07' W 005°22'0 0.1
2018-Jun-10 04:00N 36°07' W 005°22'0 0.0
2018-Jun-10 03:30N 36°07' W 005°22'0 0.1
2018-Jun-10 02:54N 36°07' W 005°22'0 0.1
2018-Jun-10 02:30N 36°07' W 005°22'0 0.1
2018-Jun-10 02:00N 36°08' W 005°22'2 3.7
2018-Jun-10 01:30N 36°06' W 005°22'2 4.5
2018-Jun-10 01:00N 36°04' W 005°20'0 0.7
2018-Jun-10 00:30N 36°04' W 005°20'0 0.4
2018-Jun-10 00:00N 36°04' W 005°20'1 2.6
2018-Jun-09 23:30N 36°03' W 005°21'4 8.9
2018-Jun-09 23:00N 35°60' W 005°24'510.6
2018-Jun-09 22:30N 35°57' W 005°30'61512.1
2018-Jun-07 19:52N 28°15' W 013°29'512.0
2018-Jun-07 19:26N 28°10' W 013°32'611.9
2018-Jun-07 18:58N 28°06' W 013°36'611.9
2018-Jun-07 18:29N 28°01' W 013°40'611.6
2018-Jun-07 17:59N 27°56' W 013°44'611.5
2018-Jun-07 17:30N 27°52' W 013°47'611.5
2018-Jun-07 17:00N 27°47' W 013°51'  
Track history (hours):
 
Tides and Currents Weather Stations Pressure Air Temp Water Temp Dewpoint Dewpoint Depression Visibility Wind Speed Wind Dir Waves Ship Positions

Harvest Plains

Last reported at 2018-Jun-12 02:16 UTC. Time now 2018-Jun-19 12:21 UTC.
Position N 37°05' E 004°54'.

Length 189 m; draft 10.5 m.

Type: Cargo ship. MMSI: 538004043.

Date/timePositionNaut miles runAvg speedWind from/ knotsBaromVisibWave heightAir tempDewpointWater temp
2018-Jun-12 02:16N 37°05' E 004°54'311.1
2018-Jun-12 02:00N 37°07' E 004°52'1911.3
2018-Jun-12 00:21N 37°10' E 004°29'412.0
2018-Jun-12 00:00N 37°10' E 004°24'612.2
2018-Jun-11 23:30N 37°10' E 004°16'612.7
2018-Jun-11 23:00N 37°10' E 004°08'7712.7
2018-Jun-11 16:58N 37°06' E 002°32'713.8
2018-Jun-11 16:29N 37°05' E 002°24'613.2
2018-Jun-11 16:00N 37°03' E 002°16'713.1
2018-Jun-11 15:30N 37°01' E 002°08'713.4
2018-Jun-11 15:00N 36°60' E 001°60'12013.3
2018-Jun-11 06:00N 36°34' W 000°26'612.3
2018-Jun-11 05:30N 36°33' W 000°34'812.3
2018-Jun-11 04:53N 36°31' W 000°43'21613.5
2018-Jun-10 12:54N 36°05' W 005°09'513.8
2018-Jun-10 12:31N 36°05' W 005°15'611.5
2018-Jun-10 12:00N 36°06' W 005°22'1 2.9
2018-Jun-10 11:30N 36°08' W 005°22'0 0.1
2018-Jun-10 11:00N 36°07' W 005°22'0 0.0
2018-Jun-10 10:30N 36°08' W 005°22'0 0.1
2018-Jun-10 09:48N 36°07' W 005°22'0 0.1
2018-Jun-10 09:30N 36°07' W 005°22'0 0.0
2018-Jun-10 08:57N 36°08' W 005°22'0 0.1
2018-Jun-10 08:30N 36°08' W 005°22'0 0.1
2018-Jun-10 08:00N 36°08' W 005°22'0 0.3
2018-Jun-10 07:24N 36°07' W 005°22'0 0.0
2018-Jun-10 07:00N 36°07' W 005°22'0 0.0
2018-Jun-10 06:30N 36°07' W 005°22'0 0.0
2018-Jun-10 05:54N 36°07' W 005°22'0 0.1
2018-Jun-10 05:24N 36°07' W 005°22'0 0.1
2018-Jun-10 04:48N 36°07' W 005°22'0 0.1
2018-Jun-10 04:24N 36°07' W 005°22'0 0.1
2018-Jun-10 04:00N 36°07' W 005°22'0 0.0
2018-Jun-10 03:30N 36°07' W 005°22'0 0.1
2018-Jun-10 02:54N 36°07' W 005°22'0 0.1
2018-Jun-10 02:30N 36°07' W 005°22'0 0.1
2018-Jun-10 02:00N 36°08' W 005°22'2 3.7
2018-Jun-10 01:30N 36°06' W 005°22'2 4.5
2018-Jun-10 01:00N 36°04' W 005°20'0 0.7
2018-Jun-10 00:30N 36°04' W 005°20'0 0.4
2018-Jun-10 00:00N 36°04' W 005°20'1 2.6
2018-Jun-09 23:30N 36°03' W 005°21'4 8.9
2018-Jun-09 23:00N 35°60' W 005°24'510.6
2018-Jun-09 22:30N 35°57' W 005°30'61512.1
2018-Jun-07 19:52N 28°15' W 013°29'512.0
2018-Jun-07 19:26N 28°10' W 013°32'611.9
2018-Jun-07 18:58N 28°06' W 013°36'611.9
2018-Jun-07 18:29N 28°01' W 013°40'611.6
2018-Jun-07 17:59N 27°56' W 013°44'611.5
2018-Jun-07 17:30N 27°52' W 013°47'611.5
2018-Jun-07 17:00N 27°47' W 013°51'  

Dump ship's entire track history